createdAt,value
2023-04-11T15:32:25.965Z,1.10
2023-04-11T15:34:55.083Z,1.00
2023-04-11T15:37:25.042Z,1.10
2023-04-11T15:39:52.807Z,1.10
2023-04-11T15:42:20.646Z,1.13
2023-04-11T15:44:48.345Z,1.30
2023-04-11T15:47:17.009Z,1.30
2023-04-11T15:49:44.524Z,1.23
2023-04-11T15:52:12.462Z,1.33
2023-04-11T15:54:39.948Z,1.40
2023-04-11T15:57:07.310Z,1.10
2023-04-11T15:59:37.986Z,1.30
2023-04-11T16:02:06.277Z,1.40
2023-04-11T16:04:38.473Z,1.93
2023-04-11T16:07:07.036Z,1.47
2023-04-11T16:09:35.088Z,1.20
2023-04-11T16:12:03.203Z,1.40
2023-04-11T16:14:30.874Z,1.40
2023-04-11T16:16:58.922Z,3.90
2023-04-11T16:19:26.694Z,1.63
2023-04-11T16:21:55.078Z,1.40
2023-04-11T16:24:23.494Z,1.83
2023-04-11T16:26:52.119Z,1.33
2023-04-11T16:29:20.194Z,1.27
2023-04-11T16:31:48.423Z,1.20
2023-04-11T16:34:17.255Z,1.30
2023-04-11T16:36:45.531Z,1.20
2023-04-11T16:39:13.702Z,1.30
2023-04-11T16:41:41.780Z,1.20
2023-04-11T16:44:11.605Z,1.40
2023-04-11T16:46:41.878Z,1.50
2023-04-11T16:49:11.343Z,1.50
2023-04-11T16:51:39.424Z,1.33
2023-04-11T16:54:11.153Z,1.33
2023-04-11T16:56:39.046Z,1.83
2023-04-11T16:59:07.207Z,1.30
2023-04-11T17:01:35.984Z,1.50
2023-04-11T17:04:03.834Z,1.70
2023-04-11T17:06:32.215Z,1.23
2023-04-11T17:08:59.695Z,1.10
2023-04-11T17:11:27.396Z,1.50
2023-04-11T17:13:56.303Z,1.20
2023-04-11T17:16:25.135Z,1.30
2023-04-11T17:18:53.334Z,1.20
2023-04-11T17:21:21.225Z,1.03
2023-04-11T17:23:50.805Z,1.37
2023-04-11T17:26:19.122Z,1.33
2023-04-11T17:28:47.762Z,1.10
2023-04-11T17:31:18.736Z,1.20
2023-04-11T17:33:46.653Z,1.30
2023-04-11T17:36:14.542Z,1.50
2023-04-11T17:38:43.575Z,1.70
2023-04-11T17:41:15.132Z,1.30
2023-04-11T17:43:44.043Z,1.10
2023-04-11T17:46:12.421Z,1.30
2023-04-11T17:48:39.886Z,1.70
2023-04-11T17:51:07.454Z,1.30
2023-04-11T17:53:35.004Z,1.10
2023-04-11T17:56:06.267Z,1.63
2023-04-11T17:58:34.323Z,1.60
2023-04-11T18:01:05.895Z,1.47
2023-04-11T18:03:36.418Z,4.40
2023-04-11T18:06:05.184Z,1.50
2023-04-11T18:08:49.031Z,1.60
2023-04-11T18:11:17.651Z,1.60
2023-04-11T18:13:46.362Z,1.50
2023-04-11T18:16:15.564Z,1.53
2023-04-11T18:18:43.141Z,1.50
2023-04-11T18:21:10.999Z,1.47
2023-04-11T18:23:39.427Z,1.77
2023-04-11T18:26:06.863Z,1.80
2023-04-11T18:28:34.325Z,1.73
2023-04-11T18:31:01.893Z,1.40
2023-04-11T18:33:29.754Z,1.60
2023-04-11T18:35:57.247Z,1.50
2023-04-11T18:38:24.747Z,1.60
2023-04-11T18:40:56.171Z,1.60
2023-04-11T18:43:25.176Z,1.60
2023-04-11T18:45:52.914Z,1.50
2023-04-11T18:48:20.661Z,1.60
2023-04-11T18:50:58.840Z,1.50
2023-04-11T18:53:28.478Z,1.80
2023-04-11T18:55:55.958Z,1.73
2023-04-11T18:58:25.718Z,2.13
2023-04-11T19:00:53.805Z,1.80
2023-04-11T19:03:22.892Z,1.60
2023-04-11T19:05:51.702Z,1.43
2023-04-11T19:08:19.249Z,1.60
2023-04-11T19:10:46.692Z,1.40
2023-04-11T19:13:14.253Z,1.40
2023-04-11T19:15:42.188Z,1.60
2023-04-11T19:18:10.702Z,1.50
2023-04-11T19:20:39.627Z,1.50
2023-04-11T19:23:07.762Z,1.60
2023-04-11T19:25:36.145Z,1.70
2023-04-11T19:28:04.239Z,1.50
2023-04-11T19:30:31.952Z,1.50
2023-04-11T19:32:59.795Z,1.40
2023-04-11T19:35:27.436Z,1.60
2023-04-11T19:37:55.192Z,1.80
2023-04-11T19:40:23.510Z,1.70
2023-04-11T19:42:51.712Z,1.80
2023-04-11T19:45:19.566Z,1.40
2023-04-11T19:47:47.142Z,1.63
2023-04-11T19:50:14.730Z,1.23
2023-04-11T19:52:43.822Z,1.20
2023-04-11T19:55:12.543Z,4.47
2023-04-11T19:57:41.236Z,1.80
2023-04-11T20:00:12.786Z,1.53
2023-04-11T20:02:48.743Z,1.50
2023-04-11T20:05:19.194Z,1.30
2023-04-11T20:07:47.911Z,1.57
2023-04-11T20:10:17.321Z,1.23
2023-04-11T20:12:45.432Z,1.50
2023-04-11T20:15:13.571Z,1.57
2023-04-11T20:17:43.284Z,1.77
2023-04-11T20:20:12.856Z,1.40
2023-04-11T20:22:40.704Z,1.40
2023-04-11T20:25:11.540Z,1.67
2023-04-11T20:27:43.920Z,1.50
2023-04-11T20:30:13.194Z,1.30
2023-04-11T20:32:41.847Z,1.40
2023-04-11T20:35:12.112Z,1.37
2023-04-11T20:37:41.432Z,1.43
2023-04-11T20:40:11.110Z,1.50
2023-04-11T20:42:43.167Z,1.70
2023-04-11T20:45:13.745Z,1.43
2023-04-11T20:47:41.918Z,1.50
2023-04-11T20:50:13.323Z,1.30
2023-04-11T20:52:43.428Z,1.60
2023-04-11T20:55:12.786Z,1.40
2023-04-11T20:57:40.968Z,1.50
2023-04-11T21:00:17.303Z,1.40
2023-04-11T21:03:11.209Z,1.50
2023-04-11T21:05:43.988Z,1.40
2023-04-11T21:08:12.030Z,1.60
2023-04-11T21:10:39.590Z,1.60
2023-04-11T21:13:06.839Z,1.50
2023-04-11T21:15:34.867Z,1.43
2023-04-11T21:18:02.435Z,1.33
2023-04-11T21:20:29.739Z,1.60
2023-04-11T21:22:58.876Z,1.80
2023-04-11T21:25:26.271Z,1.70
2023-04-11T21:27:53.623Z,1.90
2023-04-11T21:30:20.898Z,1.63
2023-04-11T21:32:48.161Z,2.13
2023-04-11T21:35:15.434Z,2.10
2023-04-11T21:37:42.639Z,1.70
2023-04-11T21:40:10.606Z,2.07
2023-04-11T21:42:38.373Z,2.83
2023-04-11T21:45:06.894Z,1.80
2023-04-11T21:47:34.178Z,1.70
2023-04-11T21:50:01.522Z,1.90
2023-04-11T21:52:33.202Z,1.77
2023-04-11T21:55:00.446Z,1.70
2023-04-11T21:57:27.872Z,1.93
2023-04-11T21:59:55.425Z,1.70
2023-04-11T22:02:23.194Z,1.90
2023-04-11T22:05:05.584Z,1.90
2023-04-11T22:07:48.520Z,1.70
2023-04-11T22:10:23.952Z,2.23
2023-04-11T22:12:54.418Z,2.70
2023-04-11T22:15:24.808Z,2.80
2023-04-11T22:17:54.585Z,2.67
2023-04-11T22:20:22.039Z,2.70
2023-04-11T22:22:49.317Z,2.20
2023-04-11T22:25:18.436Z,2.50
2023-04-11T22:27:46.200Z,2.43
2023-04-11T22:30:14.757Z,2.70
2023-04-11T22:32:41.972Z,2.67
2023-04-11T22:35:09.459Z,2.70
2023-04-11T22:37:36.620Z,2.60
2023-04-11T22:40:05.916Z,3.17
2023-04-11T22:42:33.153Z,3.00
2023-04-11T22:45:00.410Z,3.17
2023-04-11T22:47:28.939Z,3.50
2023-04-11T22:49:57.827Z,3.07
2023-04-11T22:52:25.872Z,3.63
2023-04-11T22:54:53.032Z,4.20
2023-04-11T22:57:20.566Z,4.90
2023-04-11T22:59:48.075Z,3.33
2023-04-11T23:02:15.824Z,3.53
2023-04-11T23:04:43.207Z,4.03
2023-04-11T23:07:10.599Z,4.23
2023-04-11T23:09:38.054Z,4.20
2023-04-11T23:12:05.554Z,3.70
2023-04-11T23:14:32.686Z,4.63
2023-04-11T23:16:59.984Z,4.90
2023-04-11T23:19:27.307Z,4.57
2023-04-11T23:21:55.561Z,5.33
2023-04-11T23:24:27.223Z,5.27
2023-04-11T23:26:54.472Z,4.50
2023-04-11T23:29:22.239Z,5.33
2023-04-11T23:31:49.458Z,4.90
2023-04-11T23:34:17.209Z,4.77
2023-04-11T23:36:44.370Z,5.33
2023-04-11T23:39:12.442Z,4.83
2023-04-11T23:41:39.703Z,5.03
2023-04-11T23:44:07.154Z,7.93
2023-04-11T23:46:34.526Z,5.60
2023-04-11T23:49:01.962Z,5.00
2023-04-11T23:51:29.308Z,5.53
2023-04-11T23:53:57.294Z,6.70
2023-04-11T23:56:24.776Z,7.57
2023-04-11T23:58:51.937Z,7.60
